Time;durP1;ratioP1;P1;durP2;ratioP2;P2;SDS_P1;SDS_P2;PMS_P1;PMS_P2;Temp;Humidity;BMP_temperature;BMP_pressure;BME280_temperature;BME280_humidity;BME280_pressure;Samples;Min_cycle;Max_cycle;Signal;HPM_P1;HPM_P2
2023/03/07 00:01:22;;;;;;;9.53;4.00;;;;;;;-0.03;100.00;99539.91;5095052;28;20457;-68
2023/03/07 00:03:48;;;;;;;9.27;3.57;;;;;;;0.03;100.00;99539.94;5094931;28;20957;-69
2023/03/07 00:06:15;;;;;;;13.10;4.53;;;;;;;0.03;100.00;99526.63;5095024;28;20531;-69
2023/03/07 00:08:42;;;;;;;12.00;3.70;;;;;;;0.12;100.00;99528.53;5095310;28;20523;-69
2023/03/07 00:11:09;;;;;;;11.17;3.93;;;;;;;0.15;100.00;99520.03;5096508;28;21064;-69
2023/03/07 00:13:38;;;;;;;10.50;4.63;;;;;;;0.14;100.00;99521.09;5097269;28;20480;-69
2023/03/07 00:16:06;;;;;;;11.47;4.37;;;;;;;0.20;100.00;99517.41;5096979;28;20531;-69
2023/03/07 00:18:33;;;;;;;12.73;5.50;;;;;;;0.29;100.00;99508.91;5096814;28;20441;-69
2023/03/07 00:21:02;;;;;;;11.93;4.83;;;;;;;0.31;100.00;99496.13;5096796;28;20906;-69
2023/03/07 00:23:28;;;;;;;15.30;4.80;;;;;;;0.27;100.00;99489.72;5097216;28;20456;-69
2023/03/07 00:26:00;;;;;;;13.10;4.37;;;;;;;0.32;100.00;99492.44;5095030;28;20875;-67
2023/03/07 00:28:26;;;;;;;15.07;5.80;;;;;;;0.34;100.00;99487.63;5094395;28;20443;-68
2023/03/07 00:30:54;;;;;;;18.03;6.50;;;;;;;0.29;100.00;99484.94;5095028;28;20437;-68
2023/03/07 00:33:21;;;;;;;16.00;5.40;;;;;;;0.31;100.00;99482.81;5095376;28;20495;-68
2023/03/07 00:35:55;;;;;;;14.13;5.40;;;;;;;0.35;100.00;99473.25;5095598;28;20462;-68
2023/03/07 00:38:22;;;;;;;14.37;4.70;;;;;;;0.37;100.00;99469.28;5095526;28;20932;-68
2023/03/07 00:40:56;;;;;;;11.90;5.00;;;;;;;0.46;100.00;99464.25;5095328;28;20447;-68
2023/03/07 00:43:23;;;;;;;12.10;4.77;;;;;;;0.48;100.00;99456.78;5095287;28;20794;-68
2023/03/07 00:45:50;;;;;;;12.70;5.20;;;;;;;0.53;100.00;99446.13;5094660;28;20543;-68
2023/03/07 00:48:18;;;;;;;14.80;5.90;;;;;;;0.57;100.00;99443.75;5094243;28;20440;-68
2023/03/07 00:50:44;;;;;;;13.80;5.47;;;;;;;0.58;100.00;99435.50;5094081;28;20444;-69
2023/03/07 00:53:11;;;;;;;13.77;5.03;;;;;;;0.63;100.00;99432.84;5093760;28;20428;-69
2023/03/07 00:55:38;;;;;;;13.20;5.03;;;;;;;0.65;100.00;99425.38;5093973;28;20531;-69
2023/03/07 00:58:04;;;;;;;17.30;6.40;;;;;;;0.66;100.00;99418.97;5093605;28;20528;-69
2023/03/07 01:00:31;;;;;;;15.97;6.20;;;;;;;0.70;100.00;99414.72;5093672;28;20460;-69
2023/03/07 01:03:00;;;;;;;15.03;5.80;;;;;;;0.71;100.00;99410.22;5093141;28;20569;-70
2023/03/07 01:05:28;;;;;;;16.30;5.70;;;;;;;0.68;100.00;99395.56;5093487;28;20440;-69
2023/03/07 01:07:55;;;;;;;13.03;5.07;;;;;;;0.77;100.00;99395.03;5093366;28;20531;-69
2023/03/07 01:10:21;;;;;;;13.27;5.77;;;;;;;0.72;100.00;99387.84;5093536;28;20523;-69
2023/03/07 01:12:48;;;;;;;16.77;7.27;;;;;;;0.81;100.00;99388.91;5093267;28;20463;-69
2023/03/07 01:15:15;;;;;;;15.20;6.40;;;;;;;0.81;100.00;99375.56;5093257;28;20511;-70
2023/03/07 01:17:41;;;;;;;23.13;6.40;;;;;;;0.85;100.00;99375.84;5092906;28;20965;-65
2023/03/07 01:20:09;;;;;;;14.07;5.57;;;;;;;0.82;100.00;99373.72;5093399;28;20535;-64
2023/03/07 01:22:37;;;;;;;14.90;5.47;;;;;;;0.82;100.00;99361.19;5093102;28;20464;-64
2023/03/07 01:25:04;;;;;;;16.83;6.57;;;;;;;0.81;100.00;99358.78;5093244;28;20447;-69
2023/03/07 01:27:30;;;;;;;19.97;8.00;;;;;;;0.83;100.00;99359.31;5093259;28;20436;-69
2023/03/07 01:29:57;;;;;;;17.60;6.80;;;;;;;0.73;100.00;99350.25;5092857;28;20527;-69
2023/03/07 01:32:23;;;;;;;15.70;6.20;;;;;;;0.73;100.00;99339.59;5093104;28;20461;-68
2023/03/07 01:34:50;;;;;;;12.70;5.73;;;;;;;0.71;100.00;99331.06;5092991;28;20530;-69
2023/03/07 01:37:17;;;;;;;15.47;6.07;;;;;;;0.74;100.00;99327.84;5093154;28;20448;-69
2023/03/07 01:39:45;;;;;;;12.30;5.70;;;;;;;0.73;100.00;99323.59;5092462;28;21017;-69
2023/03/07 01:42:12;;;;;;;16.10;7.00;;;;;;;0.80;100.00;99304.69;5092437;28;20610;-70
2023/03/07 01:45:01;;;;;;;18.07;6.70;;;;;;;0.87;100.00;99299.06;5092671;28;20444;-69
2023/03/07 01:47:28;;;;;;;17.83;7.17;;;;;;;0.91;100.00;99300.94;5092958;28;20519;-69
2023/03/07 01:49:55;;;;;;;16.37;6.80;;;;;;;0.93;100.00;99290.81;5094393;28;20971;-69
2023/03/07 01:52:24;;;;;;;15.77;6.97;;;;;;;0.93;100.00;99295.31;5096859;28;20455;-69
2023/03/07 01:54:56;;;;;;;22.00;8.00;;;;;;;0.92;100.00;99286.53;5096611;28;20511;-69
2023/03/07 01:57:26;;;;;;;16.00;6.73;;;;;;;0.95;100.00;99286.00;5096657;28;20452;-68
2023/03/07 01:59:56;;;;;;;16.67;6.57;;;;;;;0.89;100.00;99280.97;5096225;28;20478;-69
2023/03/07 02:02:24;;;;;;;26.50;9.27;;;;;;;0.92;100.00;99269.75;5096199;28;20476;-70
2023/03/07 02:04:54;;;;;;;16.07;7.70;;;;;;;0.87;100.00;99264.44;5096004;28;20441;-69
2023/03/07 02:07:24;;;;;;;15.80;6.27;;;;;;;0.95;100.00;99253.22;5096315;28;20516;-68
2023/03/07 02:09:55;;;;;;;18.30;7.67;;;;;;;0.98;100.00;99247.34;5096916;28;20413;-69
2023/03/07 02:12:22;;;;;;;17.93;8.30;;;;;;;1.04;100.00;99240.94;5096125;28;20989;-69
2023/03/07 02:14:50;;;;;;;20.53;8.80;;;;;;;1.07;100.00;99239.59;5096375;28;20579;-69
2023/03/07 02:17:17;;;;;;;19.67;8.23;;;;;;;1.07;100.00;99240.38;5095941;28;21008;-69
2023/03/07 02:19:53;;;;;;;21.07;9.07;;;;;;;1.08;100.00;99230.53;5096306;28;20475;-69
2023/03/07 02:22:20;;;;;;;23.60;9.03;;;;;;;1.13;100.00;99225.16;5095926;28;20944;-69
2023/03/07 02:24:52;;;;;;;21.63;9.07;;;;;;;1.09;100.00;99216.13;5096158;28;20532;-69
2023/03/07 02:27:20;;;;;;;26.90;9.30;;;;;;;1.12;100.00;99216.38;5096154;28;20519;-69
2023/03/07 02:29:47;;;;;;;22.57;9.10;;;;;;;1.18;100.00;99212.59;5095998;28;20872;-69
2023/03/07 02:32:14;;;;;;;27.63;10.27;;;;;;;1.22;100.00;99205.66;5096101;28;20471;-69
2023/03/07 02:34:41;;;;;;;20.97;10.17;;;;;;;1.24;100.00;99192.88;5095659;28;20482;-69
2023/03/07 02:37:12;;;;;;;23.73;9.30;;;;;;;1.22;100.00;99195.00;5095736;28;20949;-69
2023/03/07 02:39:41;;;;;;;20.00;8.50;;;;;;;1.25;100.00;99183.00;5095902;28;20519;-69
2023/03/07 02:42:11;;;;;;;27.40;10.93;;;;;;;1.31;100.00;99176.53;5095757;28;20539;-69
2023/03/07 02:44:39;;;;;;;23.57;10.00;;;;;;;1.35;100.00;99166.13;5096006;28;20443;-69
2023/03/07 02:47:08;;;;;;;24.57;10.10;;;;;;;1.36;100.00;99162.38;5095674;28;20438;-68
2023/03/07 02:49:35;;;;;;;30.50;10.97;;;;;;;1.40;100.00;99155.44;5095515;28;20947;-69
2023/03/07 02:52:02;;;;;;;26.90;11.40;;;;;;;1.38;100.00;99149.59;5095613;28;20456;-69
2023/03/07 02:54:28;;;;;;;22.67;10.20;;;;;;;1.40;100.00;99142.09;5095648;28;20931;-68
2023/03/07 02:56:55;;;;;;;32.53;10.70;;;;;;;1.37;100.00;99132.75;5095672;28;20498;-69
2023/03/07 02:59:22;;;;;;;29.80;11.17;;;;;;;1.44;100.00;99133.25;5095631;28;20497;-68
2023/03/07 03:01:50;;;;;;;24.57;10.20;;;;;;;1.43;100.00;99126.34;5118098;22;20499;-66
2023/03/07 03:04:16;;;;;;;29.57;10.23;;;;;;;1.38;100.00;99115.72;5095472;28;20447;-67
2023/03/07 03:06:43;;;;;;;27.83;10.50;;;;;;;1.38;100.00;99106.91;5094828;28;20451;-66
2023/03/07 03:09:10;;;;;;;31.77;12.50;;;;;;;1.46;100.00;99111.63;5095177;28;20441;-67
2023/03/07 03:11:36;;;;;;;29.53;12.70;;;;;;;1.51;100.00;99117.75;5094662;28;20460;-67
2023/03/07 03:14:03;;;;;;;25.13;10.73;;;;;;;1.47;100.00;99098.03;5094995;28;20448;-67
2023/03/07 03:16:30;;;;;;;24.37;9.90;;;;;;;1.51;100.00;99085.75;5094970;28;20445;-66
2023/03/07 03:18:58;;;;;;;27.00;11.80;;;;;;;1.55;100.00;99079.81;5094902;28;20451;-66
2023/03/07 03:21:24;;;;;;;27.43;10.60;;;;;;;1.49;100.00;99063.84;5094832;28;20440;-67
2023/03/07 03:23:51;;;;;;;29.50;11.43;;;;;;;1.55;100.00;99063.81;5094557;28;20476;-67
2023/03/07 03:26:18;;;;;;;34.17;13.37;;;;;;;1.57;100.00;99061.69;5094441;28;20455;-66
2023/03/07 03:28:44;;;;;;;26.17;11.60;;;;;;;1.56;100.00;99050.22;5094511;28;20448;-67
2023/03/07 03:31:14;;;;;;;38.60;13.27;;;;;;;1.52;100.00;99049.97;5094327;28;20945;-67
2023/03/07 03:33:41;;;;;;;37.00;13.70;;;;;;;1.59;100.00;99040.84;5094616;28;20441;-67
2023/03/07 03:36:10;;;;;;;31.50;13.03;;;;;;;1.67;100.00;99033.03;5094575;28;20483;-66
2023/03/07 03:38:38;;;;;;;29.27;11.10;;;;;;;1.68;100.00;99020.47;5094177;28;20953;-66
2023/03/07 03:41:05;;;;;;;28.03;11.93;;;;;;;1.76;100.00;99025.22;5094180;28;20449;-66
2023/03/07 03:43:32;;;;;;;23.97;10.47;;;;;;;1.75;100.00;99026.28;5094153;28;20965;-66
2023/03/07 03:45:59;;;;;;;27.47;9.70;;;;;;;1.76;100.00;99017.19;5094488;28;20440;-66
2023/03/07 03:48:26;;;;;;;31.33;12.60;;;;;;;1.79;100.00;99015.84;5094279;28;20472;-68
2023/03/07 03:51:00;;;;;;;28.17;10.60;;;;;;;1.85;100.00;99014.72;5094310;28;20440;-66
2023/03/07 03:53:28;;;;;;;26.17;11.17;;;;;;;1.88;100.00;99008.81;5093921;28;20456;-67
2023/03/07 03:56:01;;;;;;;31.37;12.03;;;;;;;1.86;100.00;99000.28;5094126;28;20494;-66
2023/03/07 03:58:28;;;;;;;28.83;12.20;;;;;;;1.87;100.00;99001.91;5093931;28;20461;-67
2023/03/07 04:00:55;;;;;;;34.23;12.60;;;;;;;1.90;100.00;98995.97;5094145;28;20527;-66
2023/03/07 04:03:21;;;;;;;23.80;9.23;;;;;;;1.91;100.00;98986.91;5093688;28;20499;-66
2023/03/07 04:05:48;;;;;;;29.57;11.87;;;;;;;1.92;100.00;98988.50;5094006;28;20440;-66
2023/03/07 04:08:14;;;;;;;33.73;11.10;;;;;;;1.94;100.00;98984.44;5093999;28;20443;-66
2023/03/07 04:10:42;;;;;;;27.70;11.60;;;;;;;2.00;100.00;98979.88;5093635;28;20938;-65
2023/03/07 04:13:09;;;;;;;23.97;9.87;;;;;;;1.98;100.00;98974.00;5093098;28;20463;-66
2023/03/07 04:15:36;;;;;;;29.57;11.60;;;;;;;1.96;100.00;98968.16;5093724;28;20480;-63
2023/03/07 04:18:02;;;;;;;27.20;11.13;;;;;;;1.94;100.00;98978.31;5093815;28;20448;-66
2023/03/07 04:20:29;;;;;;;29.63;11.50;;;;;;;2.01;100.00;98966.22;5093448;28;20441;-66
2023/03/07 04:22:55;;;;;;;31.17;11.80;;;;;;;1.96;100.00;98957.47;5093668;28;20463;-62
2023/03/07 04:25:22;;;;;;;21.00;10.07;;;;;;;1.95;100.00;98947.91;5093705;28;20436;-65
2023/03/07 04:27:50;;;;;;;25.37;9.10;;;;;;;2.01;100.00;98947.53;5093657;28;20440;-66
2023/03/07 04:30:16;;;;;;;24.50;9.87;;;;;;;1.98;100.00;98944.63;5093619;28;20440;-66
2023/03/07 04:32:43;;;;;;;29.80;11.70;;;;;;;1.99;100.00;98938.19;5093495;28;20463;-67
2023/03/07 04:35:10;;;;;;;28.77;9.90;;;;;;;1.98;100.00;98936.63;5093465;28;20484;-66
2023/03/07 04:37:36;;;;;;;26.47;10.60;;;;;;;1.96;100.00;98925.44;5093478;28;20540;-66
2023/03/07 04:40:03;;;;;;;30.37;12.13;;;;;;;1.91;100.00;98920.97;5093532;28;20480;-66
2023/03/07 04:42:30;;;;;;;32.50;10.37;;;;;;;1.93;100.00;98923.34;5093363;28;20460;-66
2023/03/07 04:44:58;;;;;;;29.73;11.40;;;;;;;1.95;100.00;98924.66;5093414;28;20475;-66
2023/03/07 04:47:25;;;;;;;25.00;9.87;;;;;;;1.93;100.00;98915.31;5093405;28;20444;-66
2023/03/07 04:49:52;;;;;;;30.83;11.17;;;;;;;1.93;100.00;98915.31;5093043;28;20448;-67
2023/03/07 04:52:18;;;;;;;28.73;11.30;;;;;;;1.90;100.00;98907.88;5093275;28;20452;-66
2023/03/07 04:54:45;;;;;;;30.10;11.30;;;;;;;1.90;100.00;98899.88;5093297;28;20480;-67
2023/03/07 04:57:11;;;;;;;28.37;11.53;;;;;;;1.88;100.00;98902.84;5093307;28;20437;-66
2023/03/07 04:59:38;;;;;;;21.07;9.53;;;;;;;1.88;100.00;98892.16;5093162;28;20437;-67
2023/03/07 05:02:07;;;;;;;30.10;11.03;;;;;;;1.90;100.00;98889.97;5092950;28;20476;-67
2023/03/07 05:04:34;;;;;;;25.90;9.70;;;;;;;1.87;100.00;98885.25;5093174;28;20444;-66
2023/03/07 05:07:00;;;;;;;22.07;9.43;;;;;;;1.88;100.00;98883.34;5092923;28;20491;-68
2023/03/07 05:09:27;;;;;;;25.97;9.77;;;;;;;1.86;100.00;98872.16;5092860;28;20440;-69
2023/03/07 05:11:53;;;;;;;23.70;9.00;;;;;;;1.81;100.00;98877.56;5093105;28;20514;-67
2023/03/07 05:14:20;;;;;;;22.30;10.03;;;;;;;1.75;100.00;98871.50;5093188;28;20471;-67
2023/03/07 05:16:47;;;;;;;24.90;10.20;;;;;;;1.70;100.00;98872.34;5093018;28;20491;-67
2023/03/07 05:19:15;;;;;;;28.43;10.80;;;;;;;1.72;100.00;98870.19;5093068;28;20476;-68
2023/03/07 05:21:42;;;;;;;20.97;9.37;;;;;;;1.66;100.00;98863.31;5092920;28;20466;-67
2023/03/07 05:24:09;;;;;;;22.53;9.73;;;;;;;1.67;100.00;98867.56;5093770;28;20440;-65
2023/03/07 05:26:36;;;;;;;25.80;8.63;;;;;;;1.66;100.00;98860.66;5096828;28;20914;-68
2023/03/07 05:29:04;;;;;;;24.07;10.83;;;;;;;1.67;100.00;98864.91;5097122;28;20468;-67
2023/03/07 05:31:30;;;;;;;22.53;10.40;;;;;;;1.67;100.00;98856.91;5096661;28;20938;-68
2023/03/07 05:33:57;;;;;;;17.93;8.10;;;;;;;1.68;100.00;98860.34;5097049;28;20447;-68
2023/03/07 05:36:25;;;;;;;21.60;10.10;;;;;;;1.69;100.00;98853.97;5096802;28;20483;-68
2023/03/07 05:38:52;;;;;;;21.50;9.90;;;;;;;1.71;100.00;98854.47;5097142;28;20444;-68
2023/03/07 05:41:19;;;;;;;22.53;8.90;;;;;;;1.70;100.00;98847.53;5096522;28;20822;-69
2023/03/07 05:43:45;;;;;;;23.03;9.83;;;;;;;1.73;100.00;98847.78;5096533;28;20447;-68
2023/03/07 05:46:12;;;;;;;23.43;11.20;;;;;;;1.76;100.00;98851.72;5096484;28;20868;-71
2023/03/07 05:48:38;;;;;;;23.97;10.47;;;;;;;1.74;100.00;98851.22;5096144;28;20826;-71
2023/03/07 05:51:05;;;;;;;26.13;10.47;;;;;;;1.81;100.00;98851.66;5096417;28;20529;-70
2023/03/07 05:53:33;;;;;;;23.70;10.20;;;;;;;1.74;100.00;98838.69;5096295;28;20460;-68
2023/03/07 05:56:00;;;;;;;29.63;10.20;;;;;;;1.81;100.00;98848.19;5096250;28;20819;-70
2023/03/07 05:58:26;;;;;;;16.57;8.17;;;;;;;1.82;100.00;98849.81;5096195;28;20510;-71
2023/03/07 06:00:53;;;;;;;18.97;8.17;;;;;;;1.85;100.00;98841.22;5096345;28;20793;-69
2023/03/07 06:03:20;;;;;;;24.43;10.10;;;;;;;1.86;100.00;98843.63;5095998;28;20467;-69
2023/03/07 06:05:49;;;;;;;20.13;8.87;;;;;;;1.91;100.00;98837.41;5096039;28;20436;-68
2023/03/07 06:08:15;;;;;;;22.47;8.00;;;;;;;1.88;100.00;98832.63;5096409;28;20523;-68
2023/03/07 06:10:43;;;;;;;25.23;10.67;;;;;;;1.95;100.00;98836.56;5095973;28;20984;-68
2023/03/07 06:13:15;;;;;;;25.97;9.53;;;;;;;1.94;100.00;98845.63;5096159;28;20456;-69
2023/03/07 06:15:42;;;;;;;16.77;8.23;;;;;;;1.96;100.00;98840.00;5096075;28;20854;-69
2023/03/07 06:18:09;;;;;;;25.77;10.10;;;;;;;2.00;100.00;98838.34;5096036;28;20479;-69
2023/03/07 06:20:36;;;;;;;22.17;8.80;;;;;;;2.02;100.00;98842.31;5096060;28;20448;-69
2023/03/07 06:23:03;;;;;;;24.40;9.00;;;;;;;2.05;100.00;98843.63;5096051;28;20824;-69
2023/03/07 06:25:29;;;;;;;20.20;9.47;;;;;;;2.07;100.00;98836.09;5095952;28;20579;-69
2023/03/07 06:28:00;;;;;;;24.73;9.60;;;;;;;2.10;100.00;98840.88;5095949;28;20527;-69
2023/03/07 06:30:27;;;;;;;27.57;8.43;;;;;;;2.16;100.00;98830.91;5095742;28;20801;-70
2023/03/07 06:32:53;;;;;;;20.43;7.90;;;;;;;2.16;100.00;98833.59;5095768;28;20559;-69
2023/03/07 06:35:20;;;;;;;18.03;7.57;;;;;;;2.13;100.00;98834.97;5095262;28;20486;-69
2023/03/07 06:37:46;;;;;;;26.13;8.83;;;;;;;2.14;100.00;98844.56;5095856;28;20476;-69
2023/03/07 06:40:13;;;;;;;19.50;8.60;;;;;;;2.19;100.00;98838.38;5095728;28;20447;-68
2023/03/07 06:42:40;;;;;;;24.63;10.33;;;;;;;2.22;100.00;98843.13;5095482;28;20487;-67
2023/03/07 06:45:08;;;;;;;21.53;8.43;;;;;;;2.31;100.00;98840.59;5095330;28;20972;-68
2023/03/07 06:47:35;;;;;;;21.30;8.37;;;;;;;2.31;100.00;98851.28;5095551;28;20444;-68
2023/03/07 06:50:02;;;;;;;20.30;9.37;;;;;;;2.33;100.00;98846.44;5095479;28;20476;-69
2023/03/07 06:52:28;;;;;;;21.37;7.63;;;;;;;2.36;100.00;98849.34;5095310;28;20456;-72
2023/03/07 06:54:55;;;;;;;25.80;9.87;;;;;;;2.35;100.00;98836.28;5095479;28;20444;-68
2023/03/07 06:57:22;;;;;;;24.57;7.57;;;;;;;2.41;100.00;98851.13;5095045;28;21018;-68
2023/03/07 06:59:48;;;;;;;17.60;8.13;;;;;;;2.41;100.00;98856.47;5095010;28;20480;-68
2023/03/07 07:02:16;;;;;;;20.77;8.47;;;;;;;2.44;100.00;98847.91;5094679;28;21062;-67
2023/03/07 07:04:43;;;;;;;15.97;7.27;;;;;;;2.50;100.00;98846.72;5095223;28;20480;-71
2023/03/07 07:07:10;;;;;;;16.77;7.40;;;;;;;2.47;100.00;98855.31;5094911;28;20819;-72
2023/03/07 07:09:37;;;;;;;15.73;7.20;;;;;;;2.43;100.00;98838.28;5095076;28;20817;-71
2023/03/07 07:12:04;;;;;;;18.40;7.93;;;;;;;2.46;100.00;98840.38;5094999;28;20452;-71
2023/03/07 07:14:31;;;;;;;23.17;8.07;;;;;;;2.50;100.00;98833.38;5094941;28;20448;-72
2023/03/07 07:16:58;;;;;;;23.20;9.20;;;;;;;2.55;100.00;98841.28;5094982;28;20484;-72
2023/03/07 07:19:25;;;;;;;23.20;8.07;;;;;;;2.56;100.00;98842.88;5094953;28;20475;-71
2023/03/07 07:21:52;;;;;;;16.53;8.20;;;;;;;2.61;100.00;98826.78;5094445;28;21021;-70
2023/03/07 07:24:19;;;;;;;20.97;8.50;;;;;;;2.64;100.00;98812.81;5094593;28;20455;-69
2023/03/07 07:26:46;;;;;;;17.60;6.40;;;;;;;2.69;100.00;98819.97;5094445;28;20990;-68
2023/03/07 07:29:12;;;;;;;22.73;8.90;;;;;;;2.81;100.00;98824.84;5094698;28;20535;-69
2023/03/07 07:31:39;;;;;;;22.40;8.33;;;;;;;2.86;100.00;98825.56;5094526;28;20539;-70
2023/03/07 07:34:05;;;;;;;18.73;7.17;;;;;;;2.88;100.00;98831.41;5094712;28;20483;-68
2023/03/07 07:36:33;;;;;;;15.10;6.90;;;;;;;2.91;100.00;98833.47;5094536;28;20476;-70
2023/03/07 07:39:03;;;;;;;21.33;9.13;;;;;;;2.98;100.00;98835.78;5094533;28;20448;-69
2023/03/07 07:41:30;;;;;;;25.40;8.43;;;;;;;2.96;100.00;98821.91;5094319;28;20444;-68
2023/03/07 07:43:57;;;;;;;23.77;9.67;;;;;;;2.99;100.00;98829.34;5094426;28;20440;-68
2023/03/07 07:46:24;;;;;;;18.73;7.50;;;;;;;2.97;100.00;98828.88;5093289;28;20441;-68
2023/03/07 07:48:51;;;;;;;20.97;7.20;;;;;;;2.97;100.00;98832.34;5093506;28;20475;-68
2023/03/07 07:51:17;;;;;;;20.20;8.60;;;;;;;3.08;100.00;98837.50;5093560;28;20440;-69
2023/03/07 07:53:45;;;;;;;23.23;7.80;;;;;;;3.05;100.00;98838.88;5093647;28;20896;-71
2023/03/07 07:56:12;;;;;;;20.00;8.13;;;;;;;3.06;100.00;98831.66;5093680;28;20482;-70
2023/03/07 07:58:39;;;;;;;16.47;7.37;;;;;;;3.13;100.00;98830.16;5093889;28;20528;-70
2023/03/07 08:01:13;;;;;;;18.03;7.70;;;;;;;3.19;100.00;98838.91;5093713;28;20476;-68
2023/03/07 08:03:40;;;;;;;24.30;8.00;;;;;;;3.25;100.00;98837.72;5094045;28;20454;-68
2023/03/07 08:06:07;;;;;;;21.03;9.27;;;;;;;3.24;100.00;98836.13;5094049;28;20455;-69
2023/03/07 08:08:33;;;;;;;16.93;8.67;;;;;;;3.21;100.00;98837.50;5093975;28;20575;-70
2023/03/07 08:11:01;;;;;;;21.27;8.77;;;;;;;3.27;100.00;98844.34;5094223;28;20491;-69
2023/03/07 08:13:28;;;;;;;24.03;8.93;;;;;;;3.30;100.00;98845.66;5093723;28;20490;-70
2023/03/07 08:15:54;;;;;;;17.43;7.50;;;;;;;3.26;100.00;98828.59;5093504;28;20863;-70
2023/03/07 08:18:21;;;;;;;24.30;7.47;;;;;;;3.28;100.00;98839.81;5093803;28;20452;-69
2023/03/07 08:20:48;;;;;;;19.67;7.80;;;;;;;3.23;100.00;98846.06;5093792;28;20531;-69
2023/03/07 08:23:14;;;;;;;14.73;7.20;;;;;;;3.14;100.00;98847.00;5093692;28;20461;-70
2023/03/07 08:25:41;;;;;;;16.53;7.50;;;;;;;3.16;100.00;98847.53;5093786;28;20440;-71
2023/03/07 08:28:09;;;;;;;23.13;8.07;;;;;;;3.10;100.00;98852.16;5093515;28;20445;-68
2023/03/07 08:30:37;;;;;;;18.60;8.40;;;;;;;3.06;100.00;98848.50;5093668;28;20437;-67
2023/03/07 08:33:03;;;;;;;20.03;7.17;;;;;;;3.08;100.00;98846.31;5093737;28;20459;-67
2023/03/07 08:35:30;;;;;;;20.40;7.93;;;;;;;3.06;100.00;98845.81;5093552;28;20446;-68
2023/03/07 08:37:58;;;;;;;24.97;8.70;;;;;;;3.11;100.00;98848.41;5093340;28;20448;-67
2023/03/07 08:40:25;;;;;;;15.93;7.10;;;;;;;3.22;100.00;98843.66;5093448;28;20440;-69
2023/03/07 08:42:53;;;;;;;20.33;7.90;;;;;;;3.28;100.00;98831.78;5093450;28;20507;-67
2023/03/07 08:45:22;;;;;;;23.63;8.33;;;;;;;3.37;100.00;98829.22;5093380;28;20573;-67
2023/03/07 08:47:48;;;;;;;15.43;6.67;;;;;;;3.37;100.00;98831.91;5093400;28;20554;-68
2023/03/07 08:50:15;;;;;;;19.67;6.87;;;;;;;3.43;100.00;98830.69;5093318;28;20454;-68
2023/03/07 08:52:42;;;;;;;20.57;7.43;;;;;;;3.52;100.00;98834.25;5093328;28;20467;-68
2023/03/07 08:55:10;;;;;;;18.63;6.97;;;;;;;3.54;100.00;98840.09;5093068;28;20956;-69
2023/03/07 08:57:36;;;;;;;14.23;6.40;;;;;;;3.56;100.00;98842.50;5093277;28;20678;-72
2023/03/07 09:00:06;;;;;;;21.97;7.93;;;;;;;3.60;100.00;98841.59;5093123;28;20535;-68
2023/03/07 09:02:35;;;;;;;15.60;6.33;;;;;;;3.63;100.00;98840.19;5092738;28;20476;-69
2023/03/07 09:05:01;;;;;;;19.23;6.93;;;;;;;3.61;100.00;98843.19;5093348;28;20520;-68
2023/03/07 09:07:28;;;;;;;14.60;6.60;;;;;;;3.69;100.00;98839.03;5093428;28;20448;-68
2023/03/07 09:09:55;;;;;;;20.67;6.40;;;;;;;3.78;100.00;98847.94;5093261;28;20531;-69
2023/03/07 09:12:21;;;;;;;19.87;7.57;;;;;;;3.85;100.00;98844.84;5093270;28;20460;-68
2023/03/07 09:14:48;;;;;;;17.20;6.43;;;;;;;3.88;100.00;98852.28;5093257;28;20527;-67
2023/03/07 09:17:15;;;;;;;15.10;5.60;;;;;;;3.88;100.00;98847.72;5093271;28;20487;-67
2023/03/07 09:19:43;;;;;;;17.50;5.63;;;;;;;3.89;100.00;98856.56;5093192;28;20440;-68
2023/03/07 09:22:09;;;;;;;16.70;7.00;;;;;;;3.95;100.00;98855.38;5092655;28;20456;-68
2023/03/07 09:24:36;;;;;;;19.20;6.63;;;;;;;3.99;100.00;98843.75;5092807;28;20474;-68
2023/03/07 09:27:03;;;;;;;15.20;6.00;;;;;;;4.07;100.00;98838.75;5093043;28;20435;-68
2023/03/07 09:29:29;;;;;;;14.30;6.13;;;;;;;4.08;100.00;98837.69;5092418;28;20436;-67
2023/03/07 09:31:56;;;;;;;16.93;7.03;;;;;;;4.13;100.00;98829.53;5092284;28;20467;-65
2023/03/07 09:34:22;;;;;;;15.93;6.50;;;;;;;4.09;100.00;98832.03;5091948;28;20447;-67
2023/03/07 09:36:51;;;;;;;15.53;6.43;;;;;;;4.10;100.00;98830.91;5092235;28;20476;-70
2023/03/07 09:39:18;;;;;;;13.17;5.77;;;;;;;4.13;100.00;98829.53;5092850;28;20531;-68
2023/03/07 09:42:10;;;;;;;14.60;5.20;;;;;;;4.21;100.00;98818.13;5092744;28;20468;-69
2023/03/07 09:44:55;;;;;;;14.50;5.77;;;;;;;4.33;100.00;98820.25;5088504;28;20459;-69
2023/03/07 09:48:18;;;;;;;17.20;6.30;;;;;;;4.47;100.00;98816.44;5092847;28;20472;-69
2023/03/07 09:50:52;;;;;;;9.67;4.17;;;;;;;4.55;100.00;98820.25;5010538;28;20820;-67
2023/03/07 09:53:24;;;;;;;12.23;5.07;;;;;;;4.68;100.00;98806.00;5092148;28;20840;-65
2023/03/07 09:55:54;;;;;;;14.10;5.70;;;;;;;4.67;99.26;98808.97;5092415;28;20770;-70
2023/03/07 09:58:23;;;;;;;13.37;4.73;;;;;;;4.85;100.00;98812.56;5092633;28;20476;-67
2023/03/07 10:00:55;;;;;;;16.00;5.50;;;;;;;5.01;99.74;98816.44;5092464;28;20483;-72
2023/03/07 10:03:33;;;;;;;10.57;4.17;;;;;;;5.14;98.77;98815.56;5092268;28;21050;-70
2023/03/07 10:06:08;;;;;;;10.30;3.83;;;;;;;5.17;98.60;98817.63;5092587;28;20478;-67
2023/03/07 10:08:37;;;;;;;14.17;5.60;;;;;;;5.25;97.42;98814.19;5092620;28;20439;-70
2023/03/07 10:11:17;;;;;;;13.23;4.80;;;;;;;5.37;96.80;98815.50;5094582;28;20524;-69
2023/03/07 10:14:01;;;;;;;13.73;4.93;;;;;;;5.33;95.86;98818.03;5096247;28;20428;-68
2023/03/07 10:16:35;;;;;;;9.20;3.70;;;;;;;5.45;96.79;98815.53;5095889;28;21085;-68
2023/03/07 10:19:10;;;;;;;13.93;5.00;;;;;;;5.48;95.21;98811.44;5095847;28;20510;-68
2023/03/07 10:21:43;;;;;;;11.50;4.10;;;;;;;5.45;95.13;98814.75;5095646;28;20460;-68
2023/03/07 10:24:28;;;;;;;9.93;4.00;;;;;;;5.51;95.14;98816.19;5095697;28;20793;-66
2023/03/07 10:27:01;;;;;;;10.10;3.87;;;;;;;5.57;94.95;98820.31;5095673;28;20906;-68
2023/03/07 10:29:32;;;;;;;11.47;4.17;;;;;;;5.54;93.70;98812.88;5095669;28;20872;-70
2023/03/07 10:32:12;;;;;;;9.63;3.80;;;;;;;5.50;92.60;98826.16;5095833;28;20548;-69
2023/03/07 10:34:40;;;;;;;9.57;3.10;;;;;;;5.52;91.38;98817.75;5095633;28;20472;-68
2023/03/07 10:37:16;;;;;;;10.30;3.47;;;;;;;5.46;91.26;98813.66;5095372;28;21027;-68
2023/03/07 10:39:49;;;;;;;11.80;3.10;;;;;;;5.43;90.11;98803.53;5096078;28;20428;-68
2023/03/07 10:42:18;;;;;;;6.20;2.00;;;;;;;5.30;87.64;98811.38;5095719;28;20488;-67
2023/03/07 10:44:47;;;;;;;7.07;2.87;;;;;;;5.30;84.58;98818.63;5095736;28;20515;-68
2023/03/07 10:47:20;;;;;;;7.27;2.00;;;;;;;5.11;85.62;98821.56;5095339;28;20448;-68
2023/03/07 10:49:49;;;;;;;8.10;2.13;;;;;;;5.13;85.31;98819.34;5095587;28;20489;-66
2023/03/07 10:52:27;;;;;;;5.80;1.57;;;;;;;5.15;85.86;98819.84;5095463;28;20492;-67
2023/03/07 10:55:12;;;;;;;8.70;2.30;;;;;;;5.00;85.70;98796.88;5095501;28;20481;-68
2023/03/07 10:57:38;;;;;;;6.03;1.77;;;;;;;4.98;88.93;98790.22;5094810;28;20868;-65
2023/03/07 11:00:15;;;;;;;6.73;1.70;;;;;;;5.08;87.90;98798.00;5095313;28;20463;-68
2023/03/07 11:02:44;;;;;;;5.93;1.73;;;;;;;5.19;87.41;98796.66;5094966;28;20480;-68
2023/03/07 11:05:25;;;;;;;5.70;1.57;;;;;;;5.31;88.29;98786.13;5095462;28;20440;-68
2023/03/07 11:07:52;;;;;;;5.47;1.50;;;;;;;5.39;87.04;98786.44;5095238;28;20429;-68
2023/03/07 11:10:34;;;;;;;5.27;1.40;;;;;;;5.42;83.34;98789.31;5094920;28;20933;-68
2023/03/07 11:13:07;;;;;;;6.73;1.53;;;;;;;5.47;85.32;98783.78;5094847;28;20531;-68
2023/03/07 11:15:34;;;;;;;5.73;1.30;;;;;;;5.48;83.70;98788.06;5095204;28;20507;-67
2023/03/07 11:18:00;;;;;;;7.70;2.00;;;;;;;5.55;84.23;98782.25;5094725;28;20571;-68
2023/03/07 11:20:29;;;;;;;6.80;1.63;;;;;;;5.59;85.38;98785.88;5094794;28;20451;-70
2023/03/07 11:23:14;;;;;;;6.97;1.80;;;;;;;5.60;83.46;98778.63;5094953;28;20464;-69
2023/03/07 11:25:42;;;;;;;5.40;1.40;;;;;;;5.57;85.10;98785.41;5095051;28;20485;-69
2023/03/07 11:28:25;;;;;;;5.27;1.57;;;;;;;5.48;85.89;98776.53;5095047;28;20875;-69
2023/03/07 11:30:53;;;;;;;6.13;1.43;;;;;;;5.52;85.17;98786.34;5094813;28;20421;-67